createdAt,value
2018-12-18T00:01:04.704Z,88.55
2018-12-18T00:03:39.165Z,88.59
2018-12-18T00:06:01.175Z,88.17
2018-12-18T00:08:29.425Z,88.21
2018-12-18T00:11:16.774Z,88.79
2018-12-18T00:13:45.048Z,88.80
2018-12-18T00:16:13.306Z,88.79
2018-12-18T00:18:41.532Z,88.55
2018-12-18T00:21:09.773Z,88.53
2018-12-18T00:23:38.001Z,89.40
2018-12-18T00:26:06.225Z,89.38
2018-12-18T00:28:34.436Z,89.32
2018-12-18T00:31:03.209Z,89.25
2018-12-18T00:33:31.417Z,88.99
2018-12-18T00:35:59.682Z,89.07
2018-12-18T00:38:27.892Z,89.07
2018-12-18T00:40:56.124Z,89.35
2018-12-18T00:43:24.379Z,89.24
2018-12-18T00:45:52.628Z,89.01
2018-12-18T00:48:20.868Z,89.60
2018-12-18T00:50:49.179Z,89.61
2018-12-18T00:53:17.441Z,89.91
2018-12-18T00:55:45.624Z,89.62
2018-12-18T00:58:13.908Z,89.64
2018-12-18T01:00:42.143Z,89.45
2018-12-18T01:03:10.383Z,89.10
2018-12-18T01:05:38.615Z,88.80
2018-12-18T01:08:06.861Z,89.41
2018-12-18T01:10:35.115Z,89.73
2018-12-18T01:13:03.366Z,89.89
2018-12-18T01:15:31.616Z,89.88
2018-12-18T01:17:59.844Z,89.69
2018-12-18T01:20:28.123Z,89.94
2018-12-18T01:22:56.330Z,90.19
2018-12-18T01:25:24.620Z,89.95
2018-12-18T01:27:52.851Z,90.09
2018-12-18T01:30:21.067Z,89.99
2018-12-18T01:32:49.326Z,89.74
2018-12-18T01:35:17.557Z,89.91
2018-12-18T01:37:45.841Z,89.86
2018-12-18T01:40:14.072Z,89.76
2018-12-18T01:42:42.283Z,90.21
2018-12-18T01:45:10.517Z,89.84
2018-12-18T01:47:38.760Z,89.73
2018-12-18T01:50:07.012Z,89.59
2018-12-18T01:52:35.212Z,89.48
2018-12-18T01:55:05.455Z,89.75
2018-12-18T01:57:33.712Z,89.80
2018-12-18T02:00:01.936Z,89.67
2018-12-18T02:02:30.188Z,89.65
2018-12-18T02:04:58.443Z,90.11
2018-12-18T02:07:26.682Z,90.35
2018-12-18T02:09:54.942Z,90.34
2018-12-18T02:12:23.201Z,90.13
2018-12-18T02:14:51.450Z,90.18
2018-12-18T02:17:19.712Z,90.26
2018-12-18T02:19:47.946Z,90.21
2018-12-18T02:22:16.171Z,90.16
2018-12-18T02:24:44.415Z,89.95
2018-12-18T02:27:12.641Z,89.98
2018-12-18T02:29:40.879Z,90.02
2018-12-18T02:32:09.118Z,89.64
2018-12-18T02:34:37.344Z,89.58
2018-12-18T02:37:05.596Z,89.57
2018-12-18T02:39:33.833Z,89.85
2018-12-18T02:42:02.071Z,90.20
2018-12-18T02:44:30.292Z,90.03
2018-12-18T02:46:58.527Z,89.80
2018-12-18T02:49:26.754Z,90.02
2018-12-18T02:51:54.986Z,89.98
2018-12-18T02:54:23.203Z,90.17
2018-12-18T02:56:51.454Z,90.64
2018-12-18T02:59:19.742Z,90.58
2018-12-18T03:01:47.901Z,90.90
2018-12-18T03:04:21.328Z,90.65
2018-12-18T03:06:44.335Z,90.89
2018-12-18T03:09:12.599Z,90.99
2018-12-18T03:11:40.814Z,90.68
2018-12-18T03:14:09.062Z,90.97
2018-12-18T03:16:37.308Z,90.86
2018-12-18T03:19:05.546Z,91.02
2018-12-18T03:21:33.765Z,90.91
2018-12-18T03:24:02.014Z,90.91
2018-12-18T03:26:30.237Z,91.02
2018-12-18T03:28:58.491Z,90.93
2018-12-18T03:31:26.701Z,91.00
2018-12-18T03:33:54.944Z,91.07
2018-12-18T03:36:23.169Z,90.75
2018-12-18T03:38:51.422Z,90.90
2018-12-18T03:41:19.649Z,91.08
2018-12-18T03:43:47.874Z,91.29
2018-12-18T03:46:16.117Z,91.39
2018-12-18T03:48:44.341Z,91.38
2018-12-18T03:51:12.572Z,91.60
2018-12-18T03:53:40.819Z,91.54
2018-12-18T03:56:09.084Z,91.71
2018-12-18T03:58:37.320Z,92.08
2018-12-18T04:01:05.541Z,92.21
2018-12-18T04:03:33.786Z,92.28
2018-12-18T04:06:02.009Z,92.31
2018-12-18T04:08:30.266Z,92.25
2018-12-18T04:10:58.501Z,92.25
2018-12-18T04:13:26.757Z,92.30
2018-12-18T04:15:55.134Z,92.70
2018-12-18T04:18:23.330Z,93.08
2018-12-18T04:20:51.580Z,92.31
2018-12-18T04:23:19.845Z,92.17
2018-12-18T04:25:48.046Z,93.37
2018-12-18T04:28:16.290Z,93.13
2018-12-18T04:30:44.495Z,93.18
2018-12-18T04:33:12.746Z,93.35
2018-12-18T04:35:40.962Z,92.67
2018-12-18T04:38:09.230Z,93.08
2018-12-18T04:40:37.449Z,93.48
2018-12-18T04:43:05.676Z,93.59
2018-12-18T04:45:33.911Z,93.51
2018-12-18T04:48:02.126Z,93.55
2018-12-18T04:51:16.474Z,92.53
2018-12-18T04:53:43.970Z,92.78
2018-12-18T04:56:11.491Z,93.11
2018-12-18T04:58:39.062Z,92.96
2018-12-18T05:01:06.618Z,92.75
2018-12-18T05:03:34.173Z,92.44
2018-12-18T05:06:01.734Z,93.23
2018-12-18T05:08:29.295Z,93.16
2018-12-18T05:10:56.858Z,94.21
2018-12-18T05:13:24.413Z,93.23
2018-12-18T05:15:51.908Z,92.57
2018-12-18T05:18:19.413Z,93.97
2018-12-18T05:20:46.918Z,94.33
2018-12-18T05:23:14.440Z,93.64
2018-12-18T05:25:42.139Z,94.45
2018-12-18T05:28:09.647Z,93.99
2018-12-18T05:30:37.254Z,93.93
2018-12-18T05:33:04.838Z,94.25
2018-12-18T05:35:32.345Z,94.48
2018-12-18T05:37:59.909Z,94.31
2018-12-18T05:40:27.476Z,94.46
2018-12-18T05:42:55.003Z,93.79
2018-12-18T05:45:22.565Z,94.18
2018-12-18T05:47:50.158Z,94.28
2018-12-18T05:50:17.714Z,95.24
2018-12-18T05:52:45.277Z,95.21
2018-12-18T05:55:12.832Z,94.67
2018-12-18T05:57:40.398Z,94.44
2018-12-18T06:00:07.949Z,94.12
2018-12-18T06:02:35.517Z,93.85
2018-12-18T06:05:03.474Z,94.69
2018-12-18T06:07:31.224Z,94.32
2018-12-18T06:09:58.736Z,95.22
2018-12-18T06:12:26.291Z,95.11
2018-12-18T06:14:53.823Z,93.75
2018-12-18T06:17:21.390Z,94.03
2018-12-18T06:19:48.944Z,94.37
2018-12-18T06:22:16.521Z,93.85
2018-12-18T06:24:44.037Z,94.66
2018-12-18T06:27:11.542Z,94.39
2018-12-18T06:29:39.185Z,94.27
2018-12-18T06:32:06.690Z,94.41
2018-12-18T06:34:34.305Z,93.94
2018-12-18T06:37:01.806Z,94.54
2018-12-18T06:39:29.424Z,94.40
2018-12-18T06:41:56.987Z,93.71
2018-12-18T06:44:24.544Z,93.97
2018-12-18T06:46:52.100Z,94.34
2018-12-18T06:49:19.602Z,94.42
2018-12-18T06:51:47.226Z,93.65
2018-12-18T06:54:14.896Z,94.53
2018-12-18T06:56:42.403Z,94.18
2018-12-18T06:59:09.922Z,94.33
2018-12-18T07:01:37.567Z,93.86
2018-12-18T07:04:05.073Z,94.46
2018-12-18T07:06:32.687Z,94.70
2018-12-18T07:09:00.183Z,94.39
2018-12-18T07:11:27.732Z,94.41
2018-12-18T07:13:55.261Z,93.99
2018-12-18T07:16:23.358Z,95.10
2018-12-18T07:18:50.864Z,94.94
2018-12-18T07:21:18.396Z,94.52
2018-12-18T07:23:45.911Z,94.78
2018-12-18T07:26:13.451Z,94.81
2018-12-18T07:28:41.053Z,93.96
2018-12-18T07:31:08.550Z,94.81
2018-12-18T07:33:36.114Z,94.55
2018-12-18T07:36:03.690Z,94.51
2018-12-18T07:38:31.210Z,94.26
2018-12-18T07:40:58.744Z,94.44
2018-12-18T07:43:26.396Z,94.45
2018-12-18T07:45:53.964Z,94.53
2018-12-18T07:48:21.516Z,93.98
2018-12-18T07:50:49.015Z,93.79
2018-12-18T07:53:16.634Z,93.58
2018-12-18T07:55:44.129Z,93.32
2018-12-18T07:58:11.653Z,93.57
2018-12-18T08:00:39.216Z,94.22
2018-12-18T08:03:06.713Z,94.02
2018-12-18T08:05:34.234Z,93.81
2018-12-18T08:08:01.799Z,93.43
2018-12-18T08:10:29.354Z,94.47
2018-12-18T08:12:56.856Z,93.95
2018-12-18T08:15:24.474Z,93.78
2018-12-18T08:17:52.005Z,93.82
2018-12-18T08:20:19.518Z,93.83
2018-12-18T08:22:47.051Z,93.50
2018-12-18T08:25:14.594Z,93.88
2018-12-18T08:27:42.130Z,94.30
2018-12-18T08:30:09.837Z,93.83
2018-12-18T08:32:37.496Z,94.20
2018-12-18T08:35:05.680Z,93.67
2018-12-18T08:37:33.245Z,93.88
2018-12-18T08:40:00.760Z,94.21
2018-12-18T08:42:28.262Z,93.73
2018-12-18T08:44:55.921Z,93.32
2018-12-18T08:47:23.572Z,94.10
2018-12-18T08:49:51.175Z,93.48
2018-12-18T08:52:18.677Z,94.31
2018-12-18T08:54:46.258Z,93.79
2018-12-18T08:57:13.761Z,93.43
2018-12-18T08:59:41.380Z,93.48
2018-12-18T09:02:08.916Z,93.82
2018-12-18T09:04:36.435Z,93.94
2018-12-18T09:07:03.981Z,93.79
2018-12-18T09:09:31.517Z,93.50
2018-12-18T09:11:59.080Z,92.85
2018-12-18T09:14:26.636Z,93.23
2018-12-18T09:17:08.575Z,93.07
2018-12-18T09:19:36.088Z,93.23
2018-12-18T09:22:04.048Z,93.27
2018-12-18T09:24:31.582Z,93.35
2018-12-18T09:26:59.150Z,93.23
2018-12-18T09:29:26.674Z,93.20
2018-12-18T09:31:54.399Z,93.06
2018-12-18T09:34:21.971Z,92.85
2018-12-18T09:36:49.485Z,93.04
2018-12-18T09:39:18.790Z,92.53
2018-12-18T09:41:46.760Z,92.84
2018-12-18T09:44:16.825Z,92.50
2018-12-18T09:46:44.402Z,92.43
2018-12-18T09:49:11.969Z,91.71
2018-12-18T09:51:39.610Z,91.68
2018-12-18T09:54:07.120Z,92.15
2018-12-18T09:56:36.587Z,91.58
2018-12-18T09:59:04.314Z,91.57
2018-12-18T10:01:31.886Z,91.54
2018-12-18T10:03:59.405Z,91.15
2018-12-18T10:06:26.921Z,91.71
2018-12-18T10:08:54.428Z,91.81
2018-12-18T10:11:21.932Z,91.09
2018-12-18T10:13:50.627Z,91.68
2018-12-18T10:16:18.135Z,91.67
2018-12-18T10:18:45.737Z,90.88
2018-12-18T10:21:13.391Z,91.72
2018-12-18T10:23:41.384Z,91.23
2018-12-18T10:26:08.953Z,91.12
2018-12-18T10:28:36.526Z,90.94
2018-12-18T10:31:04.153Z,90.73
2018-12-18T10:33:31.700Z,90.86
2018-12-18T10:36:02.941Z,91.10
2018-12-18T10:38:28.766Z,90.36
2018-12-18T10:40:56.295Z,90.91
2018-12-18T10:43:23.984Z,90.41
2018-12-18T10:45:51.477Z,89.88
2018-12-18T10:48:18.999Z,89.95
2018-12-18T10:50:46.594Z,90.29
2018-12-18T10:53:14.233Z,90.03
2018-12-18T10:55:41.789Z,90.24
2018-12-18T10:58:09.317Z,90.02
2018-12-18T11:00:42.341Z,90.11
2018-12-18T11:03:09.907Z,90.41
2018-12-18T11:05:37.417Z,90.24
2018-12-18T11:08:05.045Z,90.22
2018-12-18T11:10:32.667Z,89.71
2018-12-18T11:13:05.755Z,89.93
2018-12-18T11:15:33.420Z,89.67
2018-12-18T11:18:00.981Z,89.75
2018-12-18T11:20:28.497Z,89.55
2018-12-18T11:22:56.059Z,88.89
2018-12-18T11:25:23.608Z,89.62
2018-12-18T11:27:51.222Z,89.11
2018-12-18T11:30:18.781Z,89.02
2018-12-18T11:32:46.342Z,89.02
2018-12-18T11:35:13.910Z,88.91
2018-12-18T11:37:41.413Z,89.12
2018-12-18T11:40:09.426Z,88.73
2018-12-18T11:42:36.938Z,88.70
2018-12-18T11:45:04.832Z,88.89
2018-12-18T11:47:32.346Z,88.04
2018-12-18T11:49:59.853Z,87.85
2018-12-18T11:52:27.350Z,88.47
2018-12-18T11:54:54.911Z,87.83
2018-12-18T11:57:22.471Z,87.43
2018-12-18T11:59:50.017Z,87.54
2018-12-18T12:02:17.542Z,87.73
2018-12-18T12:04:45.069Z,87.45
2018-12-18T12:07:12.585Z,87.75
2018-12-18T12:09:40.182Z,87.02
2018-12-18T12:12:07.713Z,86.91
2018-12-18T12:14:35.240Z,86.78
2018-12-18T12:17:02.771Z,86.59
2018-12-18T12:19:30.290Z,86.49
2018-12-18T12:21:58.252Z,86.63
2018-12-18T12:24:25.793Z,87.01
2018-12-18T12:26:55.275Z,86.39
2018-12-18T12:29:22.886Z,86.81
2018-12-18T12:31:50.386Z,86.40
2018-12-18T12:34:18.003Z,87.16
2018-12-18T12:36:45.514Z,86.92
2018-12-18T12:39:13.152Z,87.33
2018-12-18T12:41:40.687Z,87.15
2018-12-18T12:44:08.210Z,86.88
2018-12-18T12:46:35.749Z,87.30
2018-12-18T12:49:05.209Z,87.45
2018-12-18T12:51:32.727Z,87.30
2018-12-18T12:54:00.325Z,87.10
2018-12-18T12:56:27.846Z,87.38
2018-12-18T12:58:55.446Z,87.48
2018-12-18T13:01:23.013Z,87.31
2018-12-18T13:03:50.584Z,87.14
2018-12-18T13:06:18.097Z,87.09
2018-12-18T13:08:45.627Z,86.80
2018-12-18T13:11:13.129Z,86.65
2018-12-18T13:13:40.650Z,86.86
2018-12-18T13:16:08.207Z,86.99
2018-12-18T13:18:35.767Z,87.06
2018-12-18T13:21:03.420Z,86.90
2018-12-18T13:23:31.066Z,87.09
2018-12-18T13:25:58.626Z,86.46
2018-12-18T13:28:26.175Z,86.41
2018-12-18T13:30:53.691Z,86.62
2018-12-18T13:33:21.249Z,86.58
2018-12-18T13:35:49.057Z,86.44
2018-12-18T13:38:16.855Z,86.79
2018-12-18T13:40:44.455Z,86.44
2018-12-18T13:43:12.009Z,86.70
2018-12-18T13:45:39.524Z,86.32
2018-12-18T13:48:07.059Z,86.47
2018-12-18T13:50:34.614Z,86.28
2018-12-18T13:53:02.180Z,86.27
2018-12-18T13:55:29.710Z,86.73
2018-12-18T13:57:57.335Z,86.48
2018-12-18T14:00:24.867Z,86.30
2018-12-18T14:02:52.376Z,86.10
2018-12-18T14:05:20.001Z,87.04
2018-12-18T14:07:47.547Z,86.61
2018-12-18T14:10:15.110Z,86.14
2018-12-18T14:12:44.557Z,86.22
2018-12-18T14:15:12.115Z,86.75
2018-12-18T14:17:39.727Z,86.63
2018-12-18T14:20:07.922Z,87.04
2018-12-18T14:22:35.420Z,86.33
2018-12-18T14:25:02.963Z,86.39
2018-12-18T14:27:30.470Z,86.35
2018-12-18T14:29:57.972Z,86.81
2018-12-18T14:32:25.609Z,87.13
2018-12-18T14:34:53.135Z,86.84
2018-12-18T14:37:20.644Z,86.72
2018-12-18T14:39:48.200Z,86.96
2018-12-18T14:42:15.729Z,87.59
2018-12-18T14:44:43.223Z,87.36
2018-12-18T14:47:10.854Z,87.43
2018-12-18T14:49:38.517Z,87.26
2018-12-18T14:52:06.198Z,88.19
2018-12-18T14:54:33.958Z,87.73
2018-12-18T14:57:01.602Z,87.57
2018-12-18T14:59:29.642Z,87.68
2018-12-18T15:01:57.246Z,88.40
2018-12-18T15:04:24.942Z,87.79
2018-12-18T15:06:52.441Z,87.43
2018-12-18T15:09:19.998Z,88.00
2018-12-18T15:11:47.680Z,88.40
2018-12-18T15:14:15.238Z,88.05
2018-12-18T15:16:42.821Z,88.49
2018-12-18T15:19:10.366Z,89.20
2018-12-18T15:21:37.889Z,89.07
2018-12-18T15:24:05.485Z,88.59
2018-12-18T15:26:33.348Z,89.04
2018-12-18T15:29:00.849Z,89.19
2018-12-18T15:31:28.359Z,88.52
2018-12-18T15:33:55.927Z,88.96
2018-12-18T15:36:23.426Z,88.91
2018-12-18T15:38:50.941Z,89.38
2018-12-18T15:41:18.500Z,89.33
2018-12-18T15:43:46.081Z,89.23
2018-12-18T15:46:13.746Z,89.01
2018-12-18T15:48:41.253Z,89.88
2018-12-18T15:51:08.852Z,90.27
2018-12-18T15:53:36.430Z,89.58
2018-12-18T15:56:04.082Z,89.49
2018-12-18T15:58:31.599Z,90.15
2018-12-18T16:00:59.102Z,90.81
2018-12-18T16:03:26.629Z,90.35
2018-12-18T16:05:54.211Z,89.92
2018-12-18T16:08:21.708Z,89.75
2018-12-18T16:10:49.355Z,90.42
2018-12-18T16:13:16.890Z,90.07
2018-12-18T16:15:44.446Z,90.03
2018-12-18T16:18:11.942Z,90.10
2018-12-18T16:20:39.467Z,89.88
2018-12-18T16:23:07.160Z,90.50
2018-12-18T16:25:34.898Z,89.42
2018-12-18T16:28:02.410Z,90.64
2018-12-18T16:30:30.009Z,90.66
2018-12-18T16:32:57.588Z,90.28
2018-12-18T16:35:25.166Z,89.98
2018-12-18T16:37:52.752Z,90.06
2018-12-18T16:40:20.325Z,90.18
2018-12-18T16:42:47.837Z,90.27
2018-12-18T16:45:15.474Z,90.77
2018-12-18T16:47:42.969Z,91.54
2018-12-18T16:50:10.488Z,90.63
2018-12-18T16:52:38.037Z,90.82
2018-12-18T16:55:06.032Z,91.29
2018-12-18T16:57:33.553Z,90.77
2018-12-18T17:00:01.098Z,91.24
2018-12-18T17:02:28.801Z,90.81
2018-12-18T17:04:56.318Z,90.87
2018-12-18T17:07:29.395Z,91.61
2018-12-18T17:09:53.428Z,91.28
2018-12-18T17:12:20.940Z,90.52
2018-12-18T17:14:48.470Z,91.75
2018-12-18T17:17:16.005Z,91.71
2018-12-18T17:19:43.526Z,91.61
2018-12-18T17:22:11.031Z,91.42
2018-12-18T17:24:38.534Z,92.39
2018-12-18T17:27:06.155Z,92.38
2018-12-18T17:29:33.726Z,91.52
2018-12-18T17:32:01.222Z,91.22
2018-12-18T17:34:28.842Z,91.74
2018-12-18T17:36:56.384Z,91.49
2018-12-18T17:39:23.945Z,91.98
2018-12-18T17:41:51.484Z,91.88
2018-12-18T17:44:18.998Z,92.58
2018-12-18T17:46:46.499Z,92.21
2018-12-18T17:49:14.053Z,92.27
2018-12-18T17:51:41.651Z,91.81
2018-12-18T17:54:09.203Z,91.61
2018-12-18T17:56:36.736Z,92.56
2018-12-18T17:59:04.386Z,92.30
2018-12-18T18:01:31.887Z,92.16
2018-12-18T18:03:59.410Z,92.68
2018-12-18T18:06:26.927Z,92.22
2018-12-18T18:08:54.473Z,92.85
2018-12-18T18:11:22.041Z,92.70
2018-12-18T18:13:49.557Z,92.35
2018-12-18T18:16:17.117Z,92.07
2018-12-18T18:18:44.621Z,92.32
2018-12-18T18:21:12.174Z,92.75
2018-12-18T18:23:39.686Z,91.75
2018-12-18T18:26:07.856Z,92.97
2018-12-18T18:28:35.449Z,93.31
2018-12-18T18:31:03.008Z,92.32
2018-12-18T18:33:30.507Z,92.52
2018-12-18T18:35:58.014Z,92.99
2018-12-18T18:38:25.598Z,93.04
2018-12-18T18:40:53.155Z,92.96
2018-12-18T18:43:20.714Z,93.03
2018-12-18T18:45:48.269Z,92.63
2018-12-18T18:48:15.778Z,92.20
2018-12-18T18:50:43.386Z,93.04
2018-12-18T18:53:10.876Z,92.62
2018-12-18T18:55:38.378Z,92.82
2018-12-18T18:58:05.971Z,93.34
2018-12-18T19:00:33.671Z,93.04
2018-12-18T19:03:01.217Z,92.75
2018-12-18T19:05:28.723Z,92.43
2018-12-18T19:07:56.801Z,92.42
2018-12-18T19:10:24.431Z,92.37
2018-12-18T19:12:53.920Z,93.17
2018-12-18T19:15:21.441Z,93.12
2018-12-18T19:17:49.106Z,93.46
2018-12-18T19:20:16.674Z,92.93
2018-12-18T19:22:44.236Z,92.95
2018-12-18T19:25:11.740Z,93.35
2018-12-18T19:27:39.350Z,94.04
2018-12-18T19:30:07.262Z,93.55
2018-12-18T19:32:34.847Z,93.06
2018-12-18T19:35:02.422Z,92.93
2018-12-18T19:37:29.995Z,93.82
2018-12-18T19:39:57.494Z,93.66
2018-12-18T19:42:25.206Z,93.38
2018-12-18T19:44:52.963Z,93.34
2018-12-18T19:47:20.498Z,93.97
2018-12-18T19:49:48.001Z,93.27
2018-12-18T19:52:15.563Z,93.73
2018-12-18T19:54:43.115Z,93.60
2018-12-18T19:57:10.690Z,93.64
2018-12-18T19:59:38.201Z,93.41
2018-12-18T20:02:06.323Z,93.50
2018-12-18T20:04:33.879Z,93.29
2018-12-18T20:07:01.614Z,93.49
2018-12-18T20:09:29.113Z,93.85
2018-12-18T20:11:57.178Z,93.31
2018-12-18T20:14:24.792Z,94.13
2018-12-18T20:16:52.391Z,93.95
2018-12-18T20:19:19.950Z,93.75
2018-12-18T20:21:47.449Z,93.81
2018-12-18T20:24:15.178Z,92.60
2018-12-18T20:26:42.683Z,92.60
2018-12-18T20:29:10.314Z,93.02
2018-12-18T20:31:37.820Z,92.99
2018-12-18T20:34:05.355Z,93.69
2018-12-18T20:36:32.941Z,93.38
2018-12-18T20:39:00.491Z,94.18
2018-12-18T20:41:28.091Z,93.17
2018-12-18T20:43:55.768Z,93.37
2018-12-18T20:46:23.264Z,93.50
2018-12-18T20:48:50.876Z,93.71
2018-12-18T20:51:18.389Z,93.74
2018-12-18T20:53:45.996Z,92.74
2018-12-18T20:56:13.656Z,92.52
2018-12-18T20:58:41.193Z,93.33
2018-12-18T21:01:08.981Z,93.55
2018-12-18T21:03:36.541Z,93.23
2018-12-18T21:06:04.150Z,92.91
2018-12-18T21:08:31.683Z,93.23
2018-12-18T21:10:59.184Z,92.46
2018-12-18T21:13:28.790Z,92.79
2018-12-18T21:15:56.596Z,92.78
2018-12-18T21:18:24.461Z,93.45
2018-12-18T21:20:52.022Z,93.05
2018-12-18T21:23:19.586Z,93.74
2018-12-18T21:25:47.086Z,93.72
2018-12-18T21:28:14.705Z,93.83
2018-12-18T21:30:42.541Z,93.41
2018-12-18T21:33:10.137Z,93.66
2018-12-18T21:35:37.826Z,93.89
2018-12-18T21:38:05.454Z,93.65
2018-12-18T21:40:33.135Z,93.95
2018-12-18T21:43:00.878Z,93.99
2018-12-18T21:45:28.378Z,93.90
2018-12-18T21:47:56.094Z,94.10
2018-12-18T21:50:23.768Z,93.66
2018-12-18T21:52:51.322Z,93.02
2018-12-18T21:55:18.991Z,93.27
2018-12-18T21:57:46.509Z,94.16
2018-12-18T22:00:14.214Z,94.29
2018-12-18T22:02:41.988Z,94.43
2018-12-18T22:05:09.944Z,94.20
2018-12-18T22:07:37.467Z,94.85
2018-12-18T22:10:06.060Z,94.19
2018-12-18T22:12:33.756Z,94.14
2018-12-18T22:15:01.312Z,94.23
2018-12-18T22:17:28.979Z,94.60
2018-12-18T22:19:56.747Z,94.17
2018-12-18T22:22:24.638Z,94.33
2018-12-18T22:24:52.474Z,94.26
2018-12-18T22:27:20.141Z,95.02
2018-12-18T22:29:47.695Z,94.80
2018-12-18T22:32:15.210Z,94.54
2018-12-18T22:34:42.754Z,94.33
2018-12-18T22:37:10.347Z,93.96
2018-12-18T22:39:37.892Z,94.63
2018-12-18T22:42:05.433Z,94.08
2018-12-18T22:44:32.952Z,94.40
2018-12-18T22:47:00.688Z,95.50
2018-12-18T22:49:28.379Z,94.51
2018-12-18T22:51:55.946Z,95.38
2018-12-18T22:54:23.453Z,94.89
2018-12-18T22:56:50.988Z,94.68
2018-12-18T22:59:18.622Z,95.40
2018-12-18T23:01:46.179Z,95.48
2018-12-18T23:04:14.277Z,95.43
2018-12-18T23:06:41.916Z,96.28
2018-12-18T23:09:11.368Z,95.44
2018-12-18T23:11:38.918Z,96.32
2018-12-18T23:14:06.458Z,96.29
2018-12-18T23:16:34.009Z,96.29
2018-12-18T23:19:01.572Z,96.62
2018-12-18T23:21:29.120Z,96.46
2018-12-18T23:23:56.679Z,96.14
2018-12-18T23:26:24.242Z,96.93
2018-12-18T23:28:51.752Z,97.02
2018-12-18T23:31:19.362Z,96.23
2018-12-18T23:33:46.877Z,96.05
2018-12-18T23:36:14.417Z,96.27
2018-12-18T23:38:41.956Z,96.20
2018-12-18T23:41:09.461Z,96.69
2018-12-18T23:43:37.065Z,97.08
2018-12-18T23:46:04.613Z,96.33
2018-12-18T23:48:32.325Z,96.51
2018-12-18T23:50:59.838Z,96.77
2018-12-18T23:53:27.526Z,96.22
2018-12-18T23:55:55.086Z,96.26
2018-12-18T23:58:22.619Z,97.17
